• Join FlightAware (Why Join?)
  • Login
  • US Flag 
02:50AM EDT


 

Airport Tracker/Info


-or-


 

Live Flight TrackerFlight Track Log ✈ RHC9965 ✈ 31-Oct-2013 ✈ ZPPP / KMG - ZJSY / SYX

Flight Track Log - Related Links

Times and Time Zones

All times are in EDT time to prevent confusion due to time zone crossing. See the RHC9965 flight status page for this flight to view local times or setup timezone preferences in your user account.

Time Position Orientation Groundspeed Altitude Reporting Facility
EDT Latitude Longitude Course Direction KTS MPH feet Rate Location/Type
11:15PM 24.5514 103.4884 137° Southeast  Level Estimated
11:16PM 24.4824 103.5579 137° Southeast  Level Estimated
11:17PM 24.4134 103.6274 137° Southeast  Level Estimated
11:18PM 24.3444 103.6968 138° Southeast  Level Estimated
11:19PM 24.2753 103.7661 138° Southeast  Level Estimated
11:20PM 24.2062 103.8354 138° Southeast  Level Estimated
11:21PM 24.1371 103.9046 138° Southeast  Level Estimated
11:22PM 24.0679 103.9737 138° Southeast  Level Estimated
11:23PM 23.9987 104.0427 138° Southeast  Level Estimated
11:24PM 23.9295 104.1116 138° Southeast  Level Estimated
11:25PM 23.8603 104.1805 138° Southeast  Level Estimated
11:26PM 23.7910 104.2493 138° Southeast  Level Estimated
11:27PM 23.7217 104.3181 138° Southeast  Level Estimated
11:28PM 23.6523 104.3867 138° Southeast  Level Estimated
11:29PM 23.5830 104.4553 138° Southeast  Level Estimated
11:30PM 23.5136 104.5238 138° Southeast  Level Estimated
11:31PM 23.4441 104.5923 138° Southeast  Level Estimated
11:32PM 23.3747 104.6606 138° Southeast  Level Estimated
11:33PM 23.3052 104.7289 138° Southeast  Level Estimated
11:34PM 23.2357 104.7972 138° Southeast  Level Estimated
11:35PM 23.1661 104.8653 138° Southeast  Level Estimated
11:36PM 23.0965 104.9334 138° Southeast  Level Estimated
11:37PM 23.0269 105.0014 138° Southeast  Level Estimated
11:38PM 22.9573 105.0694 138° Southeast  Level Estimated
11:39PM 22.8876 105.1372 138° Southeast  Level Estimated
11:40PM 22.8179 105.2050 138° Southeast  Level Estimated
11:41PM 22.7482 105.2728 138° Southeast  Level Estimated
11:42PM 22.6784 105.3404 138° Southeast  Level Estimated
11:43PM 22.6087 105.4080 138° Southeast  Level Estimated
11:44PM 22.5389 105.4756 138° Southeast  Level Estimated
11:45PM 22.4690 105.5430 138° Southeast  Level Estimated
11:46PM 22.3992 105.6104 138° Southeast  Level Estimated
11:47PM 22.3293 105.6777 138° Southeast  Level Estimated
11:48PM 22.2593 105.7450 138° Southeast  Level Estimated
11:49PM 22.1894 105.8122 138° Southeast  Level Estimated
11:50PM 22.1194 105.8793 138° Southeast  Level Estimated
11:51PM 22.0494 105.9464 138° Southeast  Level Estimated
11:52PM 21.9794 106.0134 138° Southeast  Level Estimated
11:53PM 21.9093 106.0803 138° Southeast  Level Estimated
11:54PM 21.8393 106.1471 138° Southeast  Level Estimated
11:55PM 21.7691 106.2139 138° Southeast  Level Estimated
11:56PM 21.6990 106.2807 139° Southeast  Level Estimated
11:57PM 21.6288 106.3473 139° Southeast  Level Estimated
11:58PM 21.5586 106.4139 139° Southeast  Level Estimated
11:59PM 21.4884 106.4805 139° Southeast  Level Estimated
12:00AM 21.4182 106.5469 139° Southeast  Level Estimated
12:01AM 21.3479 106.6133 139° Southeast  Level Estimated
12:02AM 21.2776 106.6797 139° Southeast  Level Estimated
12:03AM 21.2073 106.7459 139° Southeast  Level Estimated
12:04AM 21.1369 106.8122 139° Southeast  Level Estimated
12:05AM 21.0666 106.8783 139° Southeast  Level Estimated
12:06AM 20.9962 106.9444 139° Southeast  Level Estimated
12:07AM 20.9258 107.0104 139° Southeast  Level Estimated
12:08AM 20.8553 107.0764 139° Southeast  Level Estimated
12:09AM 20.7848 107.1423 139° Southeast  Level Estimated
12:10AM 20.7143 107.2082 139° Southeast  Level Estimated
12:11AM 20.6438 107.2739 139° Southeast  Level Estimated
12:12AM 20.5732 107.3397 139° Southeast  Level Estimated
12:13AM 20.5027 107.4053 139° Southeast  Level Estimated
12:14AM 20.4321 107.4709 139° Southeast  Level Estimated
12:15AM 20.3615 107.5365 139° Southeast  Level Estimated
12:16AM 20.2908 107.6019 139° Southeast  Level Estimated
12:17AM 20.2201 107.6674 139° Southeast  Level Estimated
12:18AM 20.1494 107.7327 139° Southeast  Level Estimated
12:19AM 20.0787 107.7980 139° Southeast  Level Estimated
12:20AM 20.0080 107.8633 139° Southeast  Level Estimated
12:21AM 19.9372 107.9284 139° Southeast  Level Estimated
12:22AM 19.8664 107.9936 139° Southeast  Level Estimated
12:23AM 19.7956 108.0586 139° Southeast  Level Estimated
12:24AM 19.7247 108.1236 139° Southeast  Level Estimated
12:25AM 19.6539 108.1886 139° Southeast  Level Estimated
12:26AM 19.5830 108.2535 139° Southeast  Level Estimated
12:27AM 19.5121 108.3183 139° Southeast  Level Estimated
12:28AM 19.4412 108.3831 139° Southeast  Level Estimated
12:29AM 19.3702 108.4478 139° Southeast  Level Estimated
12:30AM 19.2992 108.5125 139° Southeast  Level Estimated
12:31AM 19.2282 108.5771 139° Southeast  Level Estimated
12:32AM 19.1572 108.6416 139° Southeast  Level Estimated
12:33AM 19.0861 108.7061 139° Southeast  Level Estimated
12:34AM 19.0151 108.7706 139° Southeast  Level Estimated
12:35AM 18.9440 108.8350 139° Southeast  Level Estimated
12:36AM 18.8729 108.8993 139° Southeast  Level Estimated
12:37AM 18.8017 108.9636 139° Southeast  Level Estimated
12:38AM 18.7306 109.0278 139° Southeast  Level Estimated
12:39AM 18.6594 109.0920 139° Southeast  Level Estimated
12:40AM 18.5882 109.1561 140° Southeast  Level Estimated
12:41AM 18.5170 109.2202 140° Southeast  Level Estimated
12:42AM 18.4457 109.2842 140° Southeast  Level Estimated
12:43AM 18.3745 109.3481 140° Southeast  Level Estimated
12:44AM 18.3032 109.4120 140° Southeast  Level Estimated
12:45AM 18.3029 109.4123 139° Southeast  Level Estimated
12:46AM 18.3029 109.4123 148° Southeast  Level Estimated
12:47AM 18.3029 109.4123 148° Southeast  Level Estimated
12:48AM 18.3029 109.4123 148° Southeast  Level Estimated
12:49AM 18.3029 109.4123 148° Southeast  Level Estimated
12:50AM 18.3029 109.4123 148° Southeast  Level Estimated
12:51AM 18.3029 109.4123 148° Southeast  Level Estimated
12:52AM 18.3029 109.4123 148° Southeast  Level Estimated
12:53AM 18.3029 109.4123 148° Southeast  Level Estimated
12:54AM 18.3029 109.4123 148° Southeast  Level Estimated
12:55AM 18.3029 109.4123 148° Southeast  Level Estimated
12:56AM 18.3029 109.4123 148° Southeast  Level Estimated
12:57AM 18.3029 109.4123 148° Southeast  Level Estimated
12:58AM 18.3029 109.4123 148° Southeast  Level Estimated